sensor_id;sensor_type;location;lat;lon;timestamp;temperature;humidity
13892;DHT22;7016;48.172;8.058;2022-08-27T00:01:51;20.70;99.90
13892;DHT22;7016;48.172;8.058;2022-08-27T00:04:17;20.60;99.90
13892;DHT22;7016;48.172;8.058;2022-08-27T00:06:43;20.60;99.90
13892;DHT22;7016;48.172;8.058;2022-08-27T00:09:09;20.60;99.90
13892;DHT22;7016;48.172;8.058;2022-08-27T00:11:34;20.60;99.90
13892;DHT22;7016;48.172;8.058;2022-08-27T00:14:01;20.70;99.90
13892;DHT22;7016;48.172;8.058;2022-08-27T00:16:27;20.60;99.90
13892;DHT22;7016;48.172;8.058;2022-08-27T00:18:54;20.60;99.90
13892;DHT22;7016;48.172;8.058;2022-08-27T00:21:20;20.60;99.90
13892;DHT22;7016;48.172;8.058;2022-08-27T00:23:46;20.60;99.90
13892;DHT22;7016;48.172;8.058;2022-08-27T00:26:13;20.50;99.90
13892;DHT22;7016;48.172;8.058;2022-08-27T00:28:39;20.60;99.90
13892;DHT22;7016;48.172;8.058;2022-08-27T00:31:06;20.60;99.90
13892;DHT22;7016;48.172;8.058;2022-08-27T00:33:32;20.60;99.90
13892;DHT22;7016;48.172;8.058;2022-08-27T00:35:58;20.60;99.90
13892;DHT22;7016;48.172;8.058;2022-08-27T00:38:24;20.60;99.90
13892;DHT22;7016;48.172;8.058;2022-08-27T00:40:50;20.60;99.90
13892;DHT22;7016;48.172;8.058;2022-08-27T00:43:27;20.60;99.90
13892;DHT22;7016;48.172;8.058;2022-08-27T00:46:02;20.60;99.90
13892;DHT22;7016;48.172;8.058;2022-08-27T00:48:31;20.50;99.90
13892;DHT22;7016;48.172;8.058;2022-08-27T00:51:00;20.50;99.90
13892;DHT22;7016;48.172;8.058;2022-08-27T00:53:29;20.50;99.90
13892;DHT22;7016;48.172;8.058;2022-08-27T00:56:09;20.50;99.90
13892;DHT22;7016;48.172;8.058;2022-08-27T00:58:39;20.50;99.90
13892;DHT22;7016;48.172;8.058;2022-08-27T01:01:10;20.50;99.90
13892;DHT22;7016;48.172;8.058;2022-08-27T01:03:36;20.50;99.90
13892;DHT22;7016;48.172;8.058;2022-08-27T01:06:04;20.50;99.90
13892;DHT22;7016;48.172;8.058;2022-08-27T01:08:38;20.50;99.90
13892;DHT22;7016;48.172;8.058;2022-08-27T01:11:04;20.40;99.90
13892;DHT22;7016;48.172;8.058;2022-08-27T01:13:31;20.40;99.90
13892;DHT22;7016;48.172;8.058;2022-08-27T01:15:58;20.40;99.90
13892;DHT22;7016;48.172;8.058;2022-08-27T01:18:30;20.30;99.90
13892;DHT22;7016;48.172;8.058;2022-08-27T01:21:13;20.30;99.90
13892;DHT22;7016;48.172;8.058;2022-08-27T01:23:56;20.30;99.90
13892;DHT22;7016;48.172;8.058;2022-08-27T01:26:24;20.20;99.90
13892;DHT22;7016;48.172;8.058;2022-08-27T01:28:50;20.20;99.90
13892;DHT22;7016;48.172;8.058;2022-08-27T01:31:17;20.20;99.90
13892;DHT22;7016;48.172;8.058;2022-08-27T01:33:58;20.20;99.90
13892;DHT22;7016;48.172;8.058;2022-08-27T01:36:25;20.20;99.90
13892;DHT22;7016;48.172;8.058;2022-08-27T01:38:50;20.10;99.90
13892;DHT22;7016;48.172;8.058;2022-08-27T01:41:16;20.10;99.90
13892;DHT22;7016;48.172;8.058;2022-08-27T01:43:42;20.10;99.90
13892;DHT22;7016;48.172;8.058;2022-08-27T01:46:08;20.10;99.90
13892;DHT22;7016;48.172;8.058;2022-08-27T01:48:34;20.10;99.90
13892;DHT22;7016;48.172;8.058;2022-08-27T01:50:59;20.10;99.90
13892;DHT22;7016;48.172;8.058;2022-08-27T01:53:26;20.10;99.90
13892;DHT22;7016;48.172;8.058;2022-08-27T01:55:53;20.20;99.90
13892;DHT22;7016;48.172;8.058;2022-08-27T01:58:24;20.20;99.90
13892;DHT22;7016;48.172;8.058;2022-08-27T02:00:52;20.30;99.90
13892;DHT22;7016;48.172;8.058;2022-08-27T02:03:19;20.20;99.90
13892;DHT22;7016;48.172;8.058;2022-08-27T02:05:46;20.20;99.90
13892;DHT22;7016;48.172;8.058;2022-08-27T02:08:15;20.20;99.90
13892;DHT22;7016;48.172;8.058;2022-08-27T02:10:43;20.20;99.90
13892;DHT22;7016;48.172;8.058;2022-08-27T02:13:09;20.10;99.90
13892;DHT22;7016;48.172;8.058;2022-08-27T02:15:36;20.10;99.90
13892;DHT22;7016;48.172;8.058;2022-08-27T02:18:03;20.10;99.90
13892;DHT22;7016;48.172;8.058;2022-08-27T02:20:29;20.10;99.90
13892;DHT22;7016;48.172;8.058;2022-08-27T02:22:56;20.20;99.90
13892;DHT22;7016;48.172;8.058;2022-08-27T02:25:22;20.10;99.90
13892;DHT22;7016;48.172;8.058;2022-08-27T02:27:49;20.20;99.90
13892;DHT22;7016;48.172;8.058;2022-08-27T02:30:18;20.20;99.90
13892;DHT22;7016;48.172;8.058;2022-08-27T02:32:45;20.20;99.90
13892;DHT22;7016;48.172;8.058;2022-08-27T02:35:13;20.20;99.90
13892;DHT22;7016;48.172;8.058;2022-08-27T02:37:39;20.20;99.90
13892;DHT22;7016;48.172;8.058;2022-08-27T02:40:06;20.20;99.90
13892;DHT22;7016;48.172;8.058;2022-08-27T02:42:32;20.20;99.90
13892;DHT22;7016;48.172;8.058;2022-08-27T02:44:59;20.20;99.90
13892;DHT22;7016;48.172;8.058;2022-08-27T02:47:24;20.20;99.90
13892;DHT22;7016;48.172;8.058;2022-08-27T02:49:50;20.20;99.90
13892;DHT22;7016;48.172;8.058;2022-08-27T02:52:16;20.20;99.90
13892;DHT22;7016;48.172;8.058;2022-08-27T02:54:42;20.30;99.90
13892;DHT22;7016;48.172;8.058;2022-08-27T02:57:08;20.20;99.90
13892;DHT22;7016;48.172;8.058;2022-08-27T02:59:35;20.20;99.90
13892;DHT22;7016;48.172;8.058;2022-08-27T03:02:01;20.20;99.90
13892;DHT22;7016;48.172;8.058;2022-08-27T03:04:27;20.20;99.90
13892;DHT22;7016;48.172;8.058;2022-08-27T03:06:54;20.20;99.90
13892;DHT22;7016;48.172;8.058;2022-08-27T03:09:20;20.20;99.90
13892;DHT22;7016;48.172;8.058;2022-08-27T03:11:46;20.20;99.90
13892;DHT22;7016;48.172;8.058;2022-08-27T03:14:12;20.10;99.90
13892;DHT22;7016;48.172;8.058;2022-08-27T03:16:38;20.10;99.90
13892;DHT22;7016;48.172;8.058;2022-08-27T03:19:04;20.10;99.90
13892;DHT22;7016;48.172;8.058;2022-08-27T03:21:34;20.10;99.90
13892;DHT22;7016;48.172;8.058;2022-08-27T03:24:02;20.00;99.90
13892;DHT22;7016;48.172;8.058;2022-08-27T03:26:29;20.00;99.90
13892;DHT22;7016;48.172;8.058;2022-08-27T03:28:55;20.00;99.90
13892;DHT22;7016;48.172;8.058;2022-08-27T03:31:24;20.00;99.90
13892;DHT22;7016;48.172;8.058;2022-08-27T03:33:56;19.90;99.90
13892;DHT22;7016;48.172;8.058;2022-08-27T03:36:24;19.90;99.90
13892;DHT22;7016;48.172;8.058;2022-08-27T03:38:51;19.90;99.90
13892;DHT22;7016;48.172;8.058;2022-08-27T03:41:17;19.90;99.90
13892;DHT22;7016;48.172;8.058;2022-08-27T03:43:43;19.90;99.90
13892;DHT22;7016;48.172;8.058;2022-08-27T03:46:09;19.90;99.90
13892;DHT22;7016;48.172;8.058;2022-08-27T03:48:36;19.90;99.90
13892;DHT22;7016;48.172;8.058;2022-08-27T03:51:10;19.90;99.90
13892;DHT22;7016;48.172;8.058;2022-08-27T03:53:37;20.00;99.90
13892;DHT22;7016;48.172;8.058;2022-08-27T03:56:04;20.00;99.90
13892;DHT22;7016;48.172;8.058;2022-08-27T03:58:31;20.00;99.90
13892;DHT22;7016;48.172;8.058;2022-08-27T04:00:57;19.90;99.90
13892;DHT22;7016;48.172;8.058;2022-08-27T04:03:23;19.70;99.90
13892;DHT22;7016;48.172;8.058;2022-08-27T04:05:53;19.80;99.90
13892;DHT22;7016;48.172;8.058;2022-08-27T04:08:19;19.90;99.90
13892;DHT22;7016;48.172;8.058;2022-08-27T04:10:46;19.90;99.90
13892;DHT22;7016;48.172;8.058;2022-08-27T04:13:12;19.90;99.90
13892;DHT22;7016;48.172;8.058;2022-08-27T04:15:42;20.00;99.90
13892;DHT22;7016;48.172;8.058;2022-08-27T04:18:09;19.90;99.90
13892;DHT22;7016;48.172;8.058;2022-08-27T04:20:34;19.90;99.90
13892;DHT22;7016;48.172;8.058;2022-08-27T04:23:00;19.90;99.90
13892;DHT22;7016;48.172;8.058;2022-08-27T04:25:26;19.90;99.90
13892;DHT22;7016;48.172;8.058;2022-08-27T04:27:52;19.90;99.90
13892;DHT22;7016;48.172;8.058;2022-08-27T04:30:18;19.90;99.90
13892;DHT22;7016;48.172;8.058;2022-08-27T04:32:44;19.80;99.90
13892;DHT22;7016;48.172;8.058;2022-08-27T04:35:10;19.80;99.90
13892;DHT22;7016;48.172;8.058;2022-08-27T04:37:36;19.80;99.90
13892;DHT22;7016;48.172;8.058;2022-08-27T04:40:03;19.90;99.90
13892;DHT22;7016;48.172;8.058;2022-08-27T04:42:29;19.70;99.90
13892;DHT22;7016;48.172;8.058;2022-08-27T04:44:55;19.70;99.90
13892;DHT22;7016;48.172;8.058;2022-08-27T04:47:21;19.80;99.90
13892;DHT22;7016;48.172;8.058;2022-08-27T04:49:47;19.80;99.90
13892;DHT22;7016;48.172;8.058;2022-08-27T04:52:13;19.80;99.90
13892;DHT22;7016;48.172;8.058;2022-08-27T04:54:39;19.80;99.90
13892;DHT22;7016;48.172;8.058;2022-08-27T04:57:06;19.70;99.90
13892;DHT22;7016;48.172;8.058;2022-08-27T04:59:33;19.80;99.90
13892;DHT22;7016;48.172;8.058;2022-08-27T05:02:00;19.90;99.90
13892;DHT22;7016;48.172;8.058;2022-08-27T05:04:26;19.90;99.90
13892;DHT22;7016;48.172;8.058;2022-08-27T05:06:51;19.90;99.90
13892;DHT22;7016;48.172;8.058;2022-08-27T05:09:18;19.90;99.90
13892;DHT22;7016;48.172;8.058;2022-08-27T05:11:43;19.90;99.90
13892;DHT22;7016;48.172;8.058;2022-08-27T05:14:12;19.90;99.90
13892;DHT22;7016;48.172;8.058;2022-08-27T05:16:38;19.90;99.90
13892;DHT22;7016;48.172;8.058;2022-08-27T05:19:06;19.90;99.90
13892;DHT22;7016;48.172;8.058;2022-08-27T05:21:36;19.90;99.90
13892;DHT22;7016;48.172;8.058;2022-08-27T05:24:04;19.90;99.90
13892;DHT22;7016;48.172;8.058;2022-08-27T05:26:32;20.00;99.90
13892;DHT22;7016;48.172;8.058;2022-08-27T05:28:59;20.00;99.90
13892;DHT22;7016;48.172;8.058;2022-08-27T05:31:25;20.00;99.90
13892;DHT22;7016;48.172;8.058;2022-08-27T05:33:52;20.10;99.90
13892;DHT22;7016;48.172;8.058;2022-08-27T05:36:24;20.10;99.90
13892;DHT22;7016;48.172;8.058;2022-08-27T05:38:53;20.10;99.90
13892;DHT22;7016;48.172;8.058;2022-08-27T05:41:21;20.10;99.90
13892;DHT22;7016;48.172;8.058;2022-08-27T05:43:50;20.10;99.90
13892;DHT22;7016;48.172;8.058;2022-08-27T05:46:20;20.00;99.90
13892;DHT22;7016;48.172;8.058;2022-08-27T05:48:47;20.00;99.90
13892;DHT22;7016;48.172;8.058;2022-08-27T05:51:22;20.00;99.90
13892;DHT22;7016;48.172;8.058;2022-08-27T05:53:47;20.00;99.90
13892;DHT22;7016;48.172;8.058;2022-08-27T05:56:16;20.00;99.90
13892;DHT22;7016;48.172;8.058;2022-08-27T05:58:42;20.10;99.90
13892;DHT22;7016;48.172;8.058;2022-08-27T06:01:26;20.10;99.90
13892;DHT22;7016;48.172;8.058;2022-08-27T06:03:52;20.00;99.90
13892;DHT22;7016;48.172;8.058;2022-08-27T06:06:20;20.10;99.90
13892;DHT22;7016;48.172;8.058;2022-08-27T06:08:48;20.10;99.90
13892;DHT22;7016;48.172;8.058;2022-08-27T06:11:15;20.10;99.90
13892;DHT22;7016;48.172;8.058;2022-08-27T06:13:42;20.20;99.90
13892;DHT22;7016;48.172;8.058;2022-08-27T06:16:09;20.20;99.90
13892;DHT22;7016;48.172;8.058;2022-08-27T06:18:39;20.20;99.90
13892;DHT22;7016;48.172;8.058;2022-08-27T06:21:07;20.20;99.90
13892;DHT22;7016;48.172;8.058;2022-08-27T06:23:34;20.20;99.90
13892;DHT22;7016;48.172;8.058;2022-08-27T06:26:04;20.20;99.90
13892;DHT22;7016;48.172;8.058;2022-08-27T06:28:30;20.20;99.90
13892;DHT22;7016;48.172;8.058;2022-08-27T06:31:08;20.20;99.90
13892;DHT22;7016;48.172;8.058;2022-08-27T06:33:34;20.20;99.90
13892;DHT22;7016;48.172;8.058;2022-08-27T06:36:01;20.20;99.90
13892;DHT22;7016;48.172;8.058;2022-08-27T06:38:27;20.20;99.90
13892;DHT22;7016;48.172;8.058;2022-08-27T06:40:54;20.20;99.90
13892;DHT22;7016;48.172;8.058;2022-08-27T06:43:21;20.10;99.90
13892;DHT22;7016;48.172;8.058;2022-08-27T06:45:47;20.20;99.90
13892;DHT22;7016;48.172;8.058;2022-08-27T06:48:12;20.20;99.90
13892;DHT22;7016;48.172;8.058;2022-08-27T06:50:40;20.20;99.90
13892;DHT22;7016;48.172;8.058;2022-08-27T06:53:06;20.30;99.90
13892;DHT22;7016;48.172;8.058;2022-08-27T06:55:32;20.30;99.90
13892;DHT22;7016;48.172;8.058;2022-08-27T06:58:04;20.40;99.90
13892;DHT22;7016;48.172;8.058;2022-08-27T07:00:30;20.30;99.90
13892;DHT22;7016;48.172;8.058;2022-08-27T07:02:55;20.40;99.90
13892;DHT22;7016;48.172;8.058;2022-08-27T07:05:21;20.40;99.90
13892;DHT22;7016;48.172;8.058;2022-08-27T07:07:47;20.40;99.90
13892;DHT22;7016;48.172;8.058;2022-08-27T07:10:13;20.50;99.90
13892;DHT22;7016;48.172;8.058;2022-08-27T07:12:39;20.50;99.90
13892;DHT22;7016;48.172;8.058;2022-08-27T07:15:05;20.50;99.90
13892;DHT22;7016;48.172;8.058;2022-08-27T07:17:30;20.50;99.90
13892;DHT22;7016;48.172;8.058;2022-08-27T07:19:56;20.50;99.90
13892;DHT22;7016;48.172;8.058;2022-08-27T07:22:22;20.50;99.90
13892;DHT22;7016;48.172;8.058;2022-08-27T07:24:47;20.50;99.90
13892;DHT22;7016;48.172;8.058;2022-08-27T07:27:16;20.60;99.90
13892;DHT22;7016;48.172;8.058;2022-08-27T07:29:41;20.70;99.90
13892;DHT22;7016;48.172;8.058;2022-08-27T07:32:07;20.80;99.90
13892;DHT22;7016;48.172;8.058;2022-08-27T07:34:33;20.70;99.90
13892;DHT22;7016;48.172;8.058;2022-08-27T07:36:59;20.70;99.90
13892;DHT22;7016;48.172;8.058;2022-08-27T07:39:25;20.70;99.90
13892;DHT22;7016;48.172;8.058;2022-08-27T07:41:50;20.80;99.90
13892;DHT22;7016;48.172;8.058;2022-08-27T07:44:34;20.80;99.90
13892;DHT22;7016;48.172;8.058;2022-08-27T07:47:01;20.60;99.90
13892;DHT22;7016;48.172;8.058;2022-08-27T07:49:28;20.60;99.90
13892;DHT22;7016;48.172;8.058;2022-08-27T07:51:54;20.50;99.90
13892;DHT22;7016;48.172;8.058;2022-08-27T07:54:21;20.50;99.90
13892;DHT22;7016;48.172;8.058;2022-08-27T07:56:47;20.60;99.90
13892;DHT22;7016;48.172;8.058;2022-08-27T07:59:12;20.70;99.90
13892;DHT22;7016;48.172;8.058;2022-08-27T08:01:38;20.80;99.90
13892;DHT22;7016;48.172;8.058;2022-08-27T08:04:07;20.70;99.90
13892;DHT22;7016;48.172;8.058;2022-08-27T08:06:36;20.80;99.90
13892;DHT22;7016;48.172;8.058;2022-08-27T08:09:03;20.80;99.90
13892;DHT22;7016;48.172;8.058;2022-08-27T08:11:29;20.80;99.90
13892;DHT22;7016;48.172;8.058;2022-08-27T08:13:55;20.90;99.90
13892;DHT22;7016;48.172;8.058;2022-08-27T08:16:23;20.80;99.90
13892;DHT22;7016;48.172;8.058;2022-08-27T08:18:49;20.90;99.90
13892;DHT22;7016;48.172;8.058;2022-08-27T08:21:15;20.90;99.90
13892;DHT22;7016;48.172;8.058;2022-08-27T08:23:42;20.90;99.90
13892;DHT22;7016;48.172;8.058;2022-08-27T08:26:09;20.90;99.90
13892;DHT22;7016;48.172;8.058;2022-08-27T08:28:37;21.00;99.90
13892;DHT22;7016;48.172;8.058;2022-08-27T08:31:04;21.00;99.90
13892;DHT22;7016;48.172;8.058;2022-08-27T08:33:30;21.00;99.90
13892;DHT22;7016;48.172;8.058;2022-08-27T08:36:11;21.00;99.90
13892;DHT22;7016;48.172;8.058;2022-08-27T08:38:38;21.10;99.90
13892;DHT22;7016;48.172;8.058;2022-08-27T08:41:06;21.10;99.90
13892;DHT22;7016;48.172;8.058;2022-08-27T08:43:44;21.10;99.90
13892;DHT22;7016;48.172;8.058;2022-08-27T08:46:39;21.00;99.90
13892;DHT22;7016;48.172;8.058;2022-08-27T08:51:45;21.10;99.90
13892;DHT22;7016;48.172;8.058;2022-08-27T08:54:20;21.20;99.90
13892;DHT22;7016;48.172;8.058;2022-08-27T08:57:07;21.20;99.90
13892;DHT22;7016;48.172;8.058;2022-08-27T08:59:37;21.10;99.90
13892;DHT22;7016;48.172;8.058;2022-08-27T09:02:07;21.10;99.90
13892;DHT22;7016;48.172;8.058;2022-08-27T09:04:33;21.10;99.90
13892;DHT22;7016;48.172;8.058;2022-08-27T09:07:06;21.20;99.90
13892;DHT22;7016;48.172;8.058;2022-08-27T09:09:35;21.20;99.90
13892;DHT22;7016;48.172;8.058;2022-08-27T09:12:12;21.30;99.90
13892;DHT22;7016;48.172;8.058;2022-08-27T09:14:48;21.30;99.90
13892;DHT22;7016;48.172;8.058;2022-08-27T09:17:16;21.40;99.90
13892;DHT22;7016;48.172;8.058;2022-08-27T09:19:42;21.50;99.90
13892;DHT22;7016;48.172;8.058;2022-08-27T09:22:52;21.50;99.90
13892;DHT22;7016;48.172;8.058;2022-08-27T09:27:46;21.50;99.90
13892;DHT22;7016;48.172;8.058;2022-08-27T09:30:21;21.50;99.90
13892;DHT22;7016;48.172;8.058;2022-08-27T09:32:57;21.70;99.90
13892;DHT22;7016;48.172;8.058;2022-08-27T09:35:26;21.70;99.90
13892;DHT22;7016;48.172;8.058;2022-08-27T09:37:54;21.80;99.90
13892;DHT22;7016;48.172;8.058;2022-08-27T09:43:05;21.90;99.90
13892;DHT22;7016;48.172;8.058;2022-08-27T09:45:32;21.90;99.90
13892;DHT22;7016;48.172;8.058;2022-08-27T09:48:17;21.80;99.90
13892;DHT22;7016;48.172;8.058;2022-08-27T09:50:56;21.90;99.90
13892;DHT22;7016;48.172;8.058;2022-08-27T09:53:34;22.00;99.90
13892;DHT22;7016;48.172;8.058;2022-08-27T09:56:05;22.00;99.90
13892;DHT22;7016;48.172;8.058;2022-08-27T10:01:27;22.00;99.90
13892;DHT22;7016;48.172;8.058;2022-08-27T10:04:16;22.00;99.90
13892;DHT22;7016;48.172;8.058;2022-08-27T10:06:47;22.00;99.90
13892;DHT22;7016;48.172;8.058;2022-08-27T10:09:25;22.00;99.60
13892;DHT22;7016;48.172;8.058;2022-08-27T10:12:16;22.20;99.50
13892;DHT22;7016;48.172;8.058;2022-08-27T10:14:47;22.20;99.60
13892;DHT22;7016;48.172;8.058;2022-08-27T10:20:26;22.10;99.00
13892;DHT22;7016;48.172;8.058;2022-08-27T10:25:45;22.30;99.00
13892;DHT22;7016;48.172;8.058;2022-08-27T10:31:58;22.40;98.90
13892;DHT22;7016;48.172;8.058;2022-08-27T10:40:20;22.60;98.90
13892;DHT22;7016;48.172;8.058;2022-08-27T10:45:46;22.90;99.00
13892;DHT22;7016;48.172;8.058;2022-08-27T10:48:34;22.90;98.20
13892;DHT22;7016;48.172;8.058;2022-08-27T10:51:19;23.00;97.40
13892;DHT22;7016;48.172;8.058;2022-08-27T10:53:59;23.10;96.40
13892;DHT22;7016;48.172;8.058;2022-08-27T10:56:50;23.10;97.30
13892;DHT22;7016;48.172;8.058;2022-08-27T10:59:42;23.20;95.90
13892;DHT22;7016;48.172;8.058;2022-08-27T11:05:01;23.60;96.70
13892;DHT22;7016;48.172;8.058;2022-08-27T11:07:37;23.70;95.20
13892;DHT22;7016;48.172;8.058;2022-08-27T11:10:13;23.90;96.60
13892;DHT22;7016;48.172;8.058;2022-08-27T11:12:43;23.90;96.90
13892;DHT22;7016;48.172;8.058;2022-08-27T11:15:30;23.90;96.70
13892;DHT22;7016;48.172;8.058;2022-08-27T11:23:13;23.70;95.50
13892;DHT22;7016;48.172;8.058;2022-08-27T11:26:00;23.70;95.40
13892;DHT22;7016;48.172;8.058;2022-08-27T11:34:08;23.80;96.10
13892;DHT22;7016;48.172;8.058;2022-08-27T11:39:19;23.80;96.30
13892;DHT22;7016;48.172;8.058;2022-08-27T11:42:11;23.60;96.30
13892;DHT22;7016;48.172;8.058;2022-08-27T11:44:41;23.60;96.60
13892;DHT22;7016;48.172;8.058;2022-08-27T11:47:22;23.60;96.90
13892;DHT22;7016;48.172;8.058;2022-08-27T11:49:55;23.70;97.30
13892;DHT22;7016;48.172;8.058;2022-08-27T11:52:27;23.40;97.00
13892;DHT22;7016;48.172;8.058;2022-08-27T11:55:21;23.50;97.50
13892;DHT22;7016;48.172;8.058;2022-08-27T11:57:50;23.50;97.80
13892;DHT22;7016;48.172;8.058;2022-08-27T12:02:59;23.60;97.50
13892;DHT22;7016;48.172;8.058;2022-08-27T12:05:41;23.70;97.70
13892;DHT22;7016;48.172;8.058;2022-08-27T12:16:32;23.20;97.60
13892;DHT22;7016;48.172;8.058;2022-08-27T12:19:21;23.10;98.10
13892;DHT22;7016;48.172;8.058;2022-08-27T12:27:00;23.20;98.70
13892;DHT22;7016;48.172;8.058;2022-08-27T12:29:34;23.10;98.70
13892;DHT22;7016;48.172;8.058;2022-08-27T12:34:43;23.10;99.00
13892;DHT22;7016;48.172;8.058;2022-08-27T12:37:10;23.20;99.70
13892;DHT22;7016;48.172;8.058;2022-08-27T12:39:39;23.10;99.90
13892;DHT22;7016;48.172;8.058;2022-08-27T12:42:16;23.10;99.90
13892;DHT22;7016;48.172;8.058;2022-08-27T12:44:43;23.10;99.90
13892;DHT22;7016;48.172;8.058;2022-08-27T12:47:10;24.20;99.90
13892;DHT22;7016;48.172;8.058;2022-08-27T13:00:19;23.00;99.90
13892;DHT22;7016;48.172;8.058;2022-08-27T13:05:40;23.10;99.90
13892;DHT22;7016;48.172;8.058;2022-08-27T13:08:17;23.20;99.90
13892;DHT22;7016;48.172;8.058;2022-08-27T13:10:43;23.10;99.90
13892;DHT22;7016;48.172;8.058;2022-08-27T13:13:14;23.30;99.40
13892;DHT22;7016;48.172;8.058;2022-08-27T13:15:55;23.30;99.20
13892;DHT22;7016;48.172;8.058;2022-08-27T13:18:23;23.20;99.30
13892;DHT22;7016;48.172;8.058;2022-08-27T13:20:58;23.30;99.10
13892;DHT22;7016;48.172;8.058;2022-08-27T13:23:24;23.40;98.70
13892;DHT22;7016;48.172;8.058;2022-08-27T13:26:25;23.50;99.10
13892;DHT22;7016;48.172;8.058;2022-08-27T13:28:54;23.40;98.70
13892;DHT22;7016;48.172;8.058;2022-08-27T13:31:21;23.40;98.40
13892;DHT22;7016;48.172;8.058;2022-08-27T13:33:48;23.40;97.60
13892;DHT22;7016;48.172;8.058;2022-08-27T13:36:32;23.40;98.50
13892;DHT22;7016;48.172;8.058;2022-08-27T13:39:00;23.50;98.30
13892;DHT22;7016;48.172;8.058;2022-08-27T13:41:37;23.50;97.90
13892;DHT22;7016;48.172;8.058;2022-08-27T13:44:07;23.50;97.10
13892;DHT22;7016;48.172;8.058;2022-08-27T13:46:49;23.50;97.40
13892;DHT22;7016;48.172;8.058;2022-08-27T13:49:21;23.50;97.00
13892;DHT22;7016;48.172;8.058;2022-08-27T13:51:56;23.50;97.40
13892;DHT22;7016;48.172;8.058;2022-08-27T13:54:22;23.50;97.10
13892;DHT22;7016;48.172;8.058;2022-08-27T13:59:25;23.30;97.10
13892;DHT22;7016;48.172;8.058;2022-08-27T14:04:49;23.30;96.70
13892;DHT22;7016;48.172;8.058;2022-08-27T14:07:25;23.40;96.60
13892;DHT22;7016;48.172;8.058;2022-08-27T14:09:56;23.40;96.10
13892;DHT22;7016;48.172;8.058;2022-08-27T14:15:19;23.30;96.10
13892;DHT22;7016;48.172;8.058;2022-08-27T14:17:46;23.30;96.20
13892;DHT22;7016;48.172;8.058;2022-08-27T14:20:13;23.20;95.70
13892;DHT22;7016;48.172;8.058;2022-08-27T14:22:40;23.20;95.70
13892;DHT22;7016;48.172;8.058;2022-08-27T14:25:07;23.20;95.70
13892;DHT22;7016;48.172;8.058;2022-08-27T14:27:34;23.10;95.00
13892;DHT22;7016;48.172;8.058;2022-08-27T14:30:00;23.00;95.00
13892;DHT22;7016;48.172;8.058;2022-08-27T14:32:26;22.80;96.30
13892;DHT22;7016;48.172;8.058;2022-08-27T14:34:52;22.80;97.10
13892;DHT22;7016;48.172;8.058;2022-08-27T14:37:18;22.80;97.70
13892;DHT22;7016;48.172;8.058;2022-08-27T14:39:44;22.70;99.90
13892;DHT22;7016;48.172;8.058;2022-08-27T14:42:10;22.60;99.90
13892;DHT22;7016;48.172;8.058;2022-08-27T14:44:36;22.60;99.90
13892;DHT22;7016;48.172;8.058;2022-08-27T14:47:04;22.50;99.90
13892;DHT22;7016;48.172;8.058;2022-08-27T14:49:33;22.50;99.90
13892;DHT22;7016;48.172;8.058;2022-08-27T14:52:01;22.50;99.90
13892;DHT22;7016;48.172;8.058;2022-08-27T14:54:27;22.50;99.90
13892;DHT22;7016;48.172;8.058;2022-08-27T14:56:54;22.40;99.90
13892;DHT22;7016;48.172;8.058;2022-08-27T14:59:21;22.30;99.90
13892;DHT22;7016;48.172;8.058;2022-08-27T15:01:47;22.30;99.90
13892;DHT22;7016;48.172;8.058;2022-08-27T15:04:13;22.20;99.90
13892;DHT22;7016;48.172;8.058;2022-08-27T15:06:39;22.20;99.90
13892;DHT22;7016;48.172;8.058;2022-08-27T15:09:04;22.30;99.90
13892;DHT22;7016;48.172;8.058;2022-08-27T15:11:33;22.30;99.90
13892;DHT22;7016;48.172;8.058;2022-08-27T15:14:02;22.40;99.90
13892;DHT22;7016;48.172;8.058;2022-08-27T15:16:37;22.40;99.90
13892;DHT22;7016;48.172;8.058;2022-08-27T15:19:05;22.30;99.90
13892;DHT22;7016;48.172;8.058;2022-08-27T15:21:33;22.30;99.90
13892;DHT22;7016;48.172;8.058;2022-08-27T15:24:03;22.40;99.90
13892;DHT22;7016;48.172;8.058;2022-08-27T15:26:30;22.40;99.90
13892;DHT22;7016;48.172;8.058;2022-08-27T15:28:56;22.40;99.90
13892;DHT22;7016;48.172;8.058;2022-08-27T15:31:22;22.40;99.90
13892;DHT22;7016;48.172;8.058;2022-08-27T15:33:48;22.40;99.90
13892;DHT22;7016;48.172;8.058;2022-08-27T15:36:14;22.30;99.90
13892;DHT22;7016;48.172;8.058;2022-08-27T15:38:39;22.10;99.90
13892;DHT22;7016;48.172;8.058;2022-08-27T15:41:06;22.00;99.90
13892;DHT22;7016;48.172;8.058;2022-08-27T15:43:32;21.90;99.90
13892;DHT22;7016;48.172;8.058;2022-08-27T15:45:57;22.00;99.90
13892;DHT22;7016;48.172;8.058;2022-08-27T15:48:23;22.00;99.90
13892;DHT22;7016;48.172;8.058;2022-08-27T15:50:49;22.00;99.90
13892;DHT22;7016;48.172;8.058;2022-08-27T15:53:16;21.70;99.90
13892;DHT22;7016;48.172;8.058;2022-08-27T15:55:46;21.70;99.90
13892;DHT22;7016;48.172;8.058;2022-08-27T15:58:12;21.70;99.90
13892;DHT22;7016;48.172;8.058;2022-08-27T16:00:38;21.70;99.90
13892;DHT22;7016;48.172;8.058;2022-08-27T16:03:09;21.90;99.90
13892;DHT22;7016;48.172;8.058;2022-08-27T16:05:36;21.90;99.90
13892;DHT22;7016;48.172;8.058;2022-08-27T16:08:03;21.80;99.90
13892;DHT22;7016;48.172;8.058;2022-08-27T16:10:30;21.90;99.90
13892;DHT22;7016;48.172;8.058;2022-08-27T16:12:55;21.90;99.90
13892;DHT22;7016;48.172;8.058;2022-08-27T16:15:21;21.90;99.90
13892;DHT22;7016;48.172;8.058;2022-08-27T16:17:50;22.00;99.90
13892;DHT22;7016;48.172;8.058;2022-08-27T16:20:17;22.10;99.90
13892;DHT22;7016;48.172;8.058;2022-08-27T16:22:44;22.00;99.90
13892;DHT22;7016;48.172;8.058;2022-08-27T16:25:09;21.90;99.90
13892;DHT22;7016;48.172;8.058;2022-08-27T16:27:36;21.90;99.90
13892;DHT22;7016;48.172;8.058;2022-08-27T16:30:04;21.80;99.90
13892;DHT22;7016;48.172;8.058;2022-08-27T16:32:30;21.90;99.90
13892;DHT22;7016;48.172;8.058;2022-08-27T16:34:56;21.90;99.90
13892;DHT22;7016;48.172;8.058;2022-08-27T16:37:25;21.80;99.90
13892;DHT22;7016;48.172;8.058;2022-08-27T16:39:51;21.90;99.90
13892;DHT22;7016;48.172;8.058;2022-08-27T16:42:17;22.00;99.90
13892;DHT22;7016;48.172;8.058;2022-08-27T16:44:43;22.00;99.90
13892;DHT22;7016;48.172;8.058;2022-08-27T16:47:09;22.00;99.90
13892;DHT22;7016;48.172;8.058;2022-08-27T16:49:35;22.00;99.90
13892;DHT22;7016;48.172;8.058;2022-08-27T16:52:20;22.00;99.90
13892;DHT22;7016;48.172;8.058;2022-08-27T16:54:49;22.00;99.90
13892;DHT22;7016;48.172;8.058;2022-08-27T16:57:15;21.90;99.90
13892;DHT22;7016;48.172;8.058;2022-08-27T16:59:41;21.90;99.90
13892;DHT22;7016;48.172;8.058;2022-08-27T17:02:25;22.00;99.90
13892;DHT22;7016;48.172;8.058;2022-08-27T17:04:51;22.00;99.90
13892;DHT22;7016;48.172;8.058;2022-08-27T17:07:18;21.90;99.90
13892;DHT22;7016;48.172;8.058;2022-08-27T17:09:46;21.90;99.90
13892;DHT22;7016;48.172;8.058;2022-08-27T17:12:13;22.00;99.90
13892;DHT22;7016;48.172;8.058;2022-08-27T17:14:43;22.00;99.90
13892;DHT22;7016;48.172;8.058;2022-08-27T17:17:09;21.90;99.90
13892;DHT22;7016;48.172;8.058;2022-08-27T17:19:37;21.80;99.90
13892;DHT22;7016;48.172;8.058;2022-08-27T17:22:03;21.90;99.90
13892;DHT22;7016;48.172;8.058;2022-08-27T17:24:30;21.80;99.90